sensor_id;sensor_type;location;lat;lon;timestamp;P1;durP1;ratioP1;P2;durP2;ratioP2
71038;SDS011;58692;43.212;27.908;2024-01-30T00:00:04;20.23;;;6.47;;
71038;SDS011;58692;43.212;27.908;2024-01-30T00:02:30;22.33;;;8.02;;
71038;SDS011;58692;43.212;27.908;2024-01-30T00:04:57;20.85;;;7.93;;
71038;SDS011;58692;43.212;27.908;2024-01-30T00:07:22;21.37;;;8.13;;
71038;SDS011;58692;43.212;27.908;2024-01-30T00:09:48;19.38;;;7.38;;
71038;SDS011;58692;43.212;27.908;2024-01-30T00:12:14;18.57;;;7.30;;
71038;SDS011;58692;43.212;27.908;2024-01-30T00:14:41;22.77;;;8.73;;
71038;SDS011;58692;43.212;27.908;2024-01-30T00:17:08;23.23;;;8.70;;
71038;SDS011;58692;43.212;27.908;2024-01-30T00:19:34;19.48;;;7.90;;
71038;SDS011;58692;43.212;27.908;2024-01-30T00:21:59;19.00;;;7.53;;
71038;SDS011;58692;43.212;27.908;2024-01-30T00:24:25;20.20;;;7.93;;
71038;SDS011;58692;43.212;27.908;2024-01-30T00:26:50;20.90;;;8.13;;
71038;SDS011;58692;43.212;27.908;2024-01-30T00:29:17;16.00;;;6.65;;
71038;SDS011;58692;43.212;27.908;2024-01-30T00:31:44;21.80;;;8.73;;
71038;SDS011;58692;43.212;27.908;2024-01-30T00:34:10;18.92;;;7.93;;
71038;SDS011;58692;43.212;27.908;2024-01-30T00:36:36;19.77;;;8.17;;
71038;SDS011;58692;43.212;27.908;2024-01-30T00:39:02;20.90;;;9.30;;
71038;SDS011;58692;43.212;27.908;2024-01-30T00:41:31;20.90;;;8.13;;
71038;SDS011;58692;43.212;27.908;2024-01-30T00:43:57;21.95;;;7.65;;
71038;SDS011;58692;43.212;27.908;2024-01-30T00:46:23;19.57;;;7.40;;
71038;SDS011;58692;43.212;27.908;2024-01-30T00:48:48;20.03;;;8.23;;
71038;SDS011;58692;43.212;27.908;2024-01-30T00:51:14;17.85;;;7.40;;
71038;SDS011;58692;43.212;27.908;2024-01-30T00:53:40;23.13;;;8.30;;
71038;SDS011;58692;43.212;27.908;2024-01-30T00:56:06;22.05;;;9.52;;
71038;SDS011;58692;43.212;27.908;2024-01-30T00:58:33;17.67;;;6.88;;
71038;SDS011;58692;43.212;27.908;2024-01-30T01:00:58;22.38;;;8.82;;
71038;SDS011;58692;43.212;27.908;2024-01-30T01:03:24;22.73;;;9.00;;
71038;SDS011;58692;43.212;27.908;2024-01-30T01:05:50;22.05;;;7.38;;
71038;SDS011;58692;43.212;27.908;2024-01-30T01:08:15;24.23;;;9.30;;
71038;SDS011;58692;43.212;27.908;2024-01-30T01:10:41;20.23;;;8.23;;
71038;SDS011;58692;43.212;27.908;2024-01-30T01:13:07;19.47;;;8.57;;
71038;SDS011;58692;43.212;27.908;2024-01-30T01:15:32;23.63;;;8.45;;
71038;SDS011;58692;43.212;27.908;2024-01-30T01:17:58;24.67;;;9.30;;
71038;SDS011;58692;43.212;27.908;2024-01-30T01:20:23;20.97;;;8.07;;
71038;SDS011;58692;43.212;27.908;2024-01-30T01:22:49;20.60;;;8.65;;
71038;SDS011;58692;43.212;27.908;2024-01-30T01:25:15;20.07;;;8.23;;
71038;SDS011;58692;43.212;27.908;2024-01-30T01:27:40;17.40;;;7.57;;
71038;SDS011;58692;43.212;27.908;2024-01-30T01:30:08;23.95;;;9.45;;
71038;SDS011;58692;43.212;27.908;2024-01-30T01:32:35;26.07;;;9.73;;
71038;SDS011;58692;43.212;27.908;2024-01-30T01:35:01;20.08;;;8.07;;
71038;SDS011;58692;43.212;27.908;2024-01-30T01:37:27;19.40;;;8.45;;
71038;SDS011;58692;43.212;27.908;2024-01-30T01:39:53;21.47;;;9.07;;
71038;SDS011;58692;43.212;27.908;2024-01-30T01:42:18;20.35;;;8.07;;
71038;SDS011;58692;43.212;27.908;2024-01-30T01:44:44;20.63;;;8.20;;
71038;SDS011;58692;43.212;27.908;2024-01-30T01:47:09;24.03;;;8.33;;
71038;SDS011;58692;43.212;27.908;2024-01-30T01:49:35;24.13;;;8.63;;
71038;SDS011;58692;43.212;27.908;2024-01-30T01:52:01;22.38;;;8.82;;
71038;SDS011;58692;43.212;27.908;2024-01-30T01:54:27;20.23;;;8.18;;
71038;SDS011;58692;43.212;27.908;2024-01-30T01:56:54;23.00;;;8.17;;
71038;SDS011;58692;43.212;27.908;2024-01-30T01:59:20;22.38;;;9.18;;
71038;SDS011;58692;43.212;27.908;2024-01-30T02:01:47;20.52;;;8.25;;
71038;SDS011;58692;43.212;27.908;2024-01-30T02:04:14;22.27;;;8.70;;
71038;SDS011;58692;43.212;27.908;2024-01-30T02:06:41;22.70;;;8.52;;
71038;SDS011;58692;43.212;27.908;2024-01-30T02:09:07;21.48;;;8.00;;
71038;SDS011;58692;43.212;27.908;2024-01-30T02:11:34;20.05;;;8.18;;
71038;SDS011;58692;43.212;27.908;2024-01-30T02:14:03;19.75;;;8.27;;
71038;SDS011;58692;43.212;27.908;2024-01-30T02:16:30;20.90;;;8.13;;
71038;SDS011;58692;43.212;27.908;2024-01-30T02:18:56;20.75;;;8.05;;
71038;SDS011;58692;43.212;27.908;2024-01-30T02:21:21;21.05;;;8.50;;
71038;SDS011;58692;43.212;27.908;2024-01-30T02:23:47;22.37;;;8.23;;
71038;SDS011;58692;43.212;27.908;2024-01-30T02:26:14;21.77;;;7.97;;
71038;SDS011;58692;43.212;27.908;2024-01-30T02:28:40;18.58;;;7.57;;
71038;SDS011;58692;43.212;27.908;2024-01-30T02:31:06;18.03;;;7.13;;
71038;SDS011;58692;43.212;27.908;2024-01-30T02:33:31;19.48;;;6.88;;
71038;SDS011;58692;43.212;27.908;2024-01-30T02:35:57;20.07;;;7.73;;
71038;SDS011;58692;43.212;27.908;2024-01-30T02:38:23;22.17;;;7.97;;
71038;SDS011;58692;43.212;27.908;2024-01-30T02:40:50;20.65;;;8.10;;
71038;SDS011;58692;43.212;27.908;2024-01-30T02:43:15;17.17;;;7.27;;
71038;SDS011;58692;43.212;27.908;2024-01-30T02:45:41;23.45;;;7.80;;
71038;SDS011;58692;43.212;27.908;2024-01-30T02:48:07;17.73;;;7.67;;
71038;SDS011;58692;43.212;27.908;2024-01-30T02:50:33;19.33;;;7.38;;
71038;SDS011;58692;43.212;27.908;2024-01-30T02:52:59;22.97;;;8.57;;
71038;SDS011;58692;43.212;27.908;2024-01-30T02:55:24;18.17;;;7.40;;
71038;SDS011;58692;43.212;27.908;2024-01-30T02:57:50;22.13;;;8.57;;
71038;SDS011;58692;43.212;27.908;2024-01-30T03:00:15;25.17;;;8.90;;
71038;SDS011;58692;43.212;27.908;2024-01-30T03:02:41;20.53;;;8.60;;
71038;SDS011;58692;43.212;27.908;2024-01-30T03:05:07;20.00;;;7.78;;
71038;SDS011;58692;43.212;27.908;2024-01-30T03:07:33;18.05;;;7.50;;
71038;SDS011;58692;43.212;27.908;2024-01-30T03:09:59;20.13;;;7.50;;
71038;SDS011;58692;43.212;27.908;2024-01-30T03:12:24;18.73;;;7.35;;
71038;SDS011;58692;43.212;27.908;2024-01-30T03:14:50;19.53;;;8.23;;
71038;SDS011;58692;43.212;27.908;2024-01-30T03:17:16;18.80;;;7.55;;
71038;SDS011;58692;43.212;27.908;2024-01-30T03:19:41;20.03;;;7.27;;
71038;SDS011;58692;43.212;27.908;2024-01-30T03:22:07;23.03;;;8.43;;
71038;SDS011;58692;43.212;27.908;2024-01-30T03:24:32;22.25;;;7.82;;
71038;SDS011;58692;43.212;27.908;2024-01-30T03:26:58;20.77;;;8.23;;
71038;SDS011;58692;43.212;27.908;2024-01-30T03:29:24;18.05;;;8.10;;
71038;SDS011;58692;43.212;27.908;2024-01-30T03:31:49;20.87;;;7.63;;
71038;SDS011;58692;43.212;27.908;2024-01-30T03:34:15;20.88;;;7.65;;
71038;SDS011;58692;43.212;27.908;2024-01-30T03:36:41;24.30;;;8.97;;
71038;SDS011;58692;43.212;27.908;2024-01-30T03:39:06;19.85;;;8.48;;
71038;SDS011;58692;43.212;27.908;2024-01-30T03:41:32;23.43;;;8.30;;
71038;SDS011;58692;43.212;27.908;2024-01-30T03:43:58;22.10;;;8.80;;
71038;SDS011;58692;43.212;27.908;2024-01-30T03:46:23;23.27;;;8.13;;
71038;SDS011;58692;43.212;27.908;2024-01-30T03:48:49;22.42;;;8.95;;
71038;SDS011;58692;43.212;27.908;2024-01-30T03:51:15;17.70;;;7.07;;
71038;SDS011;58692;43.212;27.908;2024-01-30T03:53:41;22.13;;;8.30;;
71038;SDS011;58692;43.212;27.908;2024-01-30T03:56:07;22.73;;;9.85;;
71038;SDS011;58692;43.212;27.908;2024-01-30T03:58:33;20.52;;;8.32;;
71038;SDS011;58692;43.212;27.908;2024-01-30T04:00:59;23.60;;;8.73;;
71038;SDS011;58692;43.212;27.908;2024-01-30T04:03:25;23.77;;;8.93;;
71038;SDS011;58692;43.212;27.908;2024-01-30T04:05:52;19.10;;;7.00;;
71038;SDS011;58692;43.212;27.908;2024-01-30T04:08:18;21.70;;;8.68;;
71038;SDS011;58692;43.212;27.908;2024-01-30T04:10:44;18.20;;;7.77;;
71038;SDS011;58692;43.212;27.908;2024-01-30T04:13:09;22.98;;;8.57;;
71038;SDS011;58692;43.212;27.908;2024-01-30T04:15:35;22.40;;;8.30;;
71038;SDS011;58692;43.212;27.908;2024-01-30T04:18:01;20.92;;;8.60;;
71038;SDS011;58692;43.212;27.908;2024-01-30T04:20:27;21.95;;;8.00;;
71038;SDS011;58692;43.212;27.908;2024-01-30T04:22:54;21.15;;;8.25;;
71038;SDS011;58692;43.212;27.908;2024-01-30T04:25:19;22.70;;;7.63;;
71038;SDS011;58692;43.212;27.908;2024-01-30T04:27:45;21.77;;;7.85;;
71038;SDS011;58692;43.212;27.908;2024-01-30T04:30:12;20.20;;;8.17;;
71038;SDS011;58692;43.212;27.908;2024-01-30T04:32:38;20.30;;;7.50;;
71038;SDS011;58692;43.212;27.908;2024-01-30T04:35:04;15.77;;;7.03;;
71038;SDS011;58692;43.212;27.908;2024-01-30T04:37:30;21.05;;;8.18;;
71038;SDS011;58692;43.212;27.908;2024-01-30T04:39:56;18.97;;;7.83;;
71038;SDS011;58692;43.212;27.908;2024-01-30T04:42:22;19.00;;;7.15;;
71038;SDS011;58692;43.212;27.908;2024-01-30T04:44:48;18.20;;;7.75;;
71038;SDS011;58692;43.212;27.908;2024-01-30T04:47:13;19.67;;;7.60;;
71038;SDS011;58692;43.212;27.908;2024-01-30T04:49:39;17.43;;;6.30;;
71038;SDS011;58692;43.212;27.908;2024-01-30T04:52:05;17.90;;;6.13;;
71038;SDS011;58692;43.212;27.908;2024-01-30T04:54:31;20.17;;;6.72;;
71038;SDS011;58692;43.212;27.908;2024-01-30T04:56:57;16.13;;;6.35;;
71038;SDS011;58692;43.212;27.908;2024-01-30T04:59:23;18.90;;;6.37;;
71038;SDS011;58692;43.212;27.908;2024-01-30T05:01:50;19.63;;;7.82;;
71038;SDS011;58692;43.212;27.908;2024-01-30T05:04:15;18.63;;;7.85;;
71038;SDS011;58692;43.212;27.908;2024-01-30T05:06:41;22.20;;;8.37;;
71038;SDS011;58692;43.212;27.908;2024-01-30T05:09:08;21.63;;;8.73;;
71038;SDS011;58692;43.212;27.908;2024-01-30T05:11:38;19.50;;;7.82;;
71038;SDS011;58692;43.212;27.908;2024-01-30T05:14:04;16.40;;;6.82;;
71038;SDS011;58692;43.212;27.908;2024-01-30T05:16:31;19.90;;;7.47;;
71038;SDS011;58692;43.212;27.908;2024-01-30T05:18:57;20.10;;;7.53;;
71038;SDS011;58692;43.212;27.908;2024-01-30T05:21:23;18.42;;;7.38;;
71038;SDS011;58692;43.212;27.908;2024-01-30T05:23:58;18.42;;;7.15;;
71038;SDS011;58692;43.212;27.908;2024-01-30T05:26:24;19.27;;;7.25;;
71038;SDS011;58692;43.212;27.908;2024-01-30T05:28:50;17.53;;;6.80;;
71038;SDS011;58692;43.212;27.908;2024-01-30T05:31:19;16.73;;;6.35;;
71038;SDS011;58692;43.212;27.908;2024-01-30T05:33:46;20.95;;;7.38;;
71038;SDS011;58692;43.212;27.908;2024-01-30T05:36:12;19.87;;;7.27;;
71038;SDS011;58692;43.212;27.908;2024-01-30T05:38:39;15.82;;;6.40;;
71038;SDS011;58692;43.212;27.908;2024-01-30T05:41:05;17.50;;;6.68;;
71038;SDS011;58692;43.212;27.908;2024-01-30T05:43:31;17.93;;;6.17;;
71038;SDS011;58692;43.212;27.908;2024-01-30T05:45:57;19.77;;;7.20;;
71038;SDS011;58692;43.212;27.908;2024-01-30T05:48:22;20.50;;;6.23;;
71038;SDS011;58692;43.212;27.908;2024-01-30T05:50:48;20.23;;;6.88;;
71038;SDS011;58692;43.212;27.908;2024-01-30T05:53:14;16.50;;;5.70;;
71038;SDS011;58692;43.212;27.908;2024-01-30T05:55:39;16.70;;;6.45;;
71038;SDS011;58692;43.212;27.908;2024-01-30T05:58:08;18.77;;;6.80;;
71038;SDS011;58692;43.212;27.908;2024-01-30T06:00:33;17.55;;;6.70;;
71038;SDS011;58692;43.212;27.908;2024-01-30T06:02:59;23.02;;;7.15;;
71038;SDS011;58692;43.212;27.908;2024-01-30T06:05:25;16.43;;;6.40;;
71038;SDS011;58692;43.212;27.908;2024-01-30T06:07:54;15.82;;;6.38;;
71038;SDS011;58692;43.212;27.908;2024-01-30T06:10:20;16.15;;;5.85;;
71038;SDS011;58692;43.212;27.908;2024-01-30T06:12:45;15.93;;;4.60;;
71038;SDS011;58692;43.212;27.908;2024-01-30T06:15:11;13.18;;;5.38;;
71038;SDS011;58692;43.212;27.908;2024-01-30T06:17:40;17.13;;;6.23;;
71038;SDS011;58692;43.212;27.908;2024-01-30T06:20:17;18.67;;;6.22;;
71038;SDS011;58692;43.212;27.908;2024-01-30T06:22:50;18.92;;;7.15;;
71038;SDS011;58692;43.212;27.908;2024-01-30T06:25:20;12.63;;;5.43;;
71038;SDS011;58692;43.212;27.908;2024-01-30T06:27:45;22.03;;;7.07;;
71038;SDS011;58692;43.212;27.908;2024-01-30T06:30:22;16.55;;;5.82;;
71038;SDS011;58692;43.212;27.908;2024-01-30T06:33:26;15.55;;;5.72;;
71038;SDS011;58692;43.212;27.908;2024-01-30T06:36:18;16.20;;;6.05;;
71038;SDS011;58692;43.212;27.908;2024-01-30T06:38:57;16.00;;;6.78;;
71038;SDS011;58692;43.212;27.908;2024-01-30T06:41:28;15.30;;;6.00;;
71038;SDS011;58692;43.212;27.908;2024-01-30T06:43:54;16.92;;;7.07;;
71038;SDS011;58692;43.212;27.908;2024-01-30T06:49:50;15.13;;;6.35;;
71038;SDS011;58692;43.212;27.908;2024-01-30T06:52:17;15.70;;;6.67;;
71038;SDS011;58692;43.212;27.908;2024-01-30T06:54:42;14.18;;;5.63;;
71038;SDS011;58692;43.212;27.908;2024-01-30T06:57:11;15.57;;;6.10;;
71038;SDS011;58692;43.212;27.908;2024-01-30T06:59:39;16.00;;;5.78;;
71038;SDS011;58692;43.212;27.908;2024-01-30T07:02:10;16.53;;;5.93;;
71038;SDS011;58692;43.212;27.908;2024-01-30T07:04:42;13.25;;;5.22;;
71038;SDS011;58692;43.212;27.908;2024-01-30T07:07:46;16.83;;;5.78;;
71038;SDS011;58692;43.212;27.908;2024-01-30T07:10:15;12.45;;;5.18;;
71038;SDS011;58692;43.212;27.908;2024-01-30T07:12:52;14.38;;;5.15;;
71038;SDS011;58692;43.212;27.908;2024-01-30T07:15:21;17.60;;;5.63;;
71038;SDS011;58692;43.212;27.908;2024-01-30T07:17:52;14.98;;;5.93;;
71038;SDS011;58692;43.212;27.908;2024-01-30T07:20:18;11.93;;;5.00;;
71038;SDS011;58692;43.212;27.908;2024-01-30T07:22:46;17.92;;;5.43;;
71038;SDS011;58692;43.212;27.908;2024-01-30T07:25:24;18.40;;;5.63;;
71038;SDS011;58692;43.212;27.908;2024-01-30T07:27:57;14.88;;;5.57;;
71038;SDS011;58692;43.212;27.908;2024-01-30T07:31:25;18.13;;;6.30;;
71038;SDS011;58692;43.212;27.908;2024-01-30T07:33:49;18.73;;;6.20;;
71038;SDS011;58692;43.212;27.908;2024-01-30T07:37:01;17.00;;;6.57;;
71038;SDS011;58692;43.212;27.908;2024-01-30T07:39:39;15.93;;;6.47;;
71038;SDS011;58692;43.212;27.908;2024-01-30T07:42:48;16.38;;;6.35;;
71038;SDS011;58692;43.212;27.908;2024-01-30T07:45:34;17.25;;;7.00;;
71038;SDS011;58692;43.212;27.908;2024-01-30T07:48:00;17.20;;;5.90;;
71038;SDS011;58692;43.212;27.908;2024-01-30T07:50:31;17.52;;;6.82;;
71038;SDS011;58692;43.212;27.908;2024-01-30T07:52:59;14.43;;;6.10;;
71038;SDS011;58692;43.212;27.908;2024-01-30T07:55:25;15.40;;;6.23;;
71038;SDS011;58692;43.212;27.908;2024-01-30T07:58:21;14.50;;;5.72;;
71038;SDS011;58692;43.212;27.908;2024-01-30T08:00:48;18.05;;;6.20;;
71038;SDS011;58692;43.212;27.908;2024-01-30T08:03:18;16.27;;;6.32;;
71038;SDS011;58692;43.212;27.908;2024-01-30T08:05:44;17.30;;;6.65;;
71038;SDS011;58692;43.212;27.908;2024-01-30T08:08:19;15.60;;;6.73;;
71038;SDS011;58692;43.212;27.908;2024-01-30T08:10:45;14.60;;;6.30;;
71038;SDS011;58692;43.212;27.908;2024-01-30T08:13:15;16.20;;;5.82;;
71038;SDS011;58692;43.212;27.908;2024-01-30T08:15:46;12.95;;;5.80;;
71038;SDS011;58692;43.212;27.908;2024-01-30T08:18:44;15.55;;;5.68;;
71038;SDS011;58692;43.212;27.908;2024-01-30T08:21:21;11.90;;;5.23;;
71038;SDS011;58692;43.212;27.908;2024-01-30T08:23:56;14.45;;;5.40;;
71038;SDS011;58692;43.212;27.908;2024-01-30T08:26:44;13.32;;;5.43;;
71038;SDS011;58692;43.212;27.908;2024-01-30T08:29:32;15.20;;;5.53;;
71038;SDS011;58692;43.212;27.908;2024-01-30T08:32:01;15.63;;;6.22;;
71038;SDS011;58692;43.212;27.908;2024-01-30T08:34:27;17.17;;;5.60;;
71038;SDS011;58692;43.212;27.908;2024-01-30T08:36:53;14.85;;;5.68;;
71038;SDS011;58692;43.212;27.908;2024-01-30T08:39:19;14.70;;;5.65;;
71038;SDS011;58692;43.212;27.908;2024-01-30T08:41:48;13.67;;;4.77;;
71038;SDS011;58692;43.212;27.908;2024-01-30T08:44:16;16.38;;;5.47;;
71038;SDS011;58692;43.212;27.908;2024-01-30T08:50:02;12.93;;;5.22;;
71038;SDS011;58692;43.212;27.908;2024-01-30T08:52:56;15.00;;;5.28;;
71038;SDS011;58692;43.212;27.908;2024-01-30T08:55:40;12.17;;;4.87;;
71038;SDS011;58692;43.212;27.908;2024-01-30T08:58:12;13.65;;;4.70;;
71038;SDS011;58692;43.212;27.908;2024-01-30T09:00:43;15.32;;;5.57;;
71038;SDS011;58692;43.212;27.908;2024-01-30T09:03:21;11.65;;;4.28;;
71038;SDS011;58692;43.212;27.908;2024-01-30T09:05:46;17.45;;;5.70;;
71038;SDS011;58692;43.212;27.908;2024-01-30T09:08:12;11.57;;;4.47;;
71038;SDS011;58692;43.212;27.908;2024-01-30T09:10:46;17.38;;;5.47;;
71038;SDS011;58692;43.212;27.908;2024-01-30T09:13:13;14.65;;;4.50;;
71038;SDS011;58692;43.212;27.908;2024-01-30T09:15:39;14.65;;;5.05;;
71038;SDS011;58692;43.212;27.908;2024-01-30T09:18:09;16.17;;;4.77;;
71038;SDS011;58692;43.212;27.908;2024-01-30T09:20:37;12.15;;;4.95;;
71038;SDS011;58692;43.212;27.908;2024-01-30T09:23:12;10.75;;;4.65;;
71038;SDS011;58692;43.212;27.908;2024-01-30T09:25:48;10.68;;;4.35;;
71038;SDS011;58692;43.212;27.908;2024-01-30T09:28:26;11.85;;;4.45;;
71038;SDS011;58692;43.212;27.908;2024-01-30T09:30:59;14.77;;;4.80;;
71038;SDS011;58692;43.212;27.908;2024-01-30T09:33:30;13.55;;;4.63;;
71038;SDS011;58692;43.212;27.908;2024-01-30T09:39:48;16.25;;;5.57;;
71038;SDS011;58692;43.212;27.908;2024-01-30T09:49:32;13.60;;;4.32;;
71038;SDS011;58692;43.212;27.908;2024-01-30T09:56:13;11.13;;;4.05;;
71038;SDS011;58692;43.212;27.908;2024-01-30T09:58:39;14.98;;;5.20;;
71038;SDS011;58692;43.212;27.908;2024-01-30T10:01:16;13.73;;;4.50;;
71038;SDS011;58692;43.212;27.908;2024-01-30T10:03:50;10.05;;;4.30;;
71038;SDS011;58692;43.212;27.908;2024-01-30T10:06:21;12.45;;;4.80;;
71038;SDS011;58692;43.212;27.908;2024-01-30T10:08:48;13.13;;;5.32;;
71038;SDS011;58692;43.212;27.908;2024-01-30T10:11:25;12.07;;;4.90;;
71038;SDS011;58692;43.212;27.908;2024-01-30T10:13:59;11.80;;;4.17;;
71038;SDS011;58692;43.212;27.908;2024-01-30T10:16:38;13.93;;;4.97;;
71038;SDS011;58692;43.212;27.908;2024-01-30T10:19:13;12.38;;;4.68;;
71038;SDS011;58692;43.212;27.908;2024-01-30T10:21:40;10.90;;;3.88;;
71038;SDS011;58692;43.212;27.908;2024-01-30T10:24:26;11.38;;;4.10;;
71038;SDS011;58692;43.212;27.908;2024-01-30T10:27:01;11.43;;;4.83;;
71038;SDS011;58692;43.212;27.908;2024-01-30T10:29:32;12.20;;;4.32;;
71038;SDS011;58692;43.212;27.908;2024-01-30T10:32:02;12.52;;;4.07;;
71038;SDS011;58692;43.212;27.908;2024-01-30T10:34:29;11.80;;;4.25;;
71038;SDS011;58692;43.212;27.908;2024-01-30T10:36:59;13.05;;;4.65;;
71038;SDS011;58692;43.212;27.908;2024-01-30T10:39:28;16.00;;;5.17;;
71038;SDS011;58692;43.212;27.908;2024-01-30T10:41:56;14.32;;;5.28;;
71038;SDS011;58692;43.212;27.908;2024-01-30T10:44:28;13.02;;;6.15;;
71038;SDS011;58692;43.212;27.908;2024-01-30T10:47:00;15.57;;;5.47;;
71038;SDS011;58692;43.212;27.908;2024-01-30T10:49:31;13.23;;;4.20;;
71038;SDS011;58692;43.212;27.908;2024-01-30T10:51:58;12.33;;;5.50;;
71038;SDS011;58692;43.212;27.908;2024-01-30T10:54:25;12.38;;;4.85;;
71038;SDS011;58692;43.212;27.908;2024-01-30T10:56:52;11.65;;;4.82;;
71038;SDS011;58692;43.212;27.908;2024-01-30T10:59:18;9.18;;;3.95;;
71038;SDS011;58692;43.212;27.908;2024-01-30T11:01:45;13.75;;;4.95;;
71038;SDS011;58692;43.212;27.908;2024-01-30T11:04:11;13.17;;;4.60;;
71038;SDS011;58692;43.212;27.908;2024-01-30T11:06:44;8.70;;;3.97;;
71038;SDS011;58692;43.212;27.908;2024-01-30T11:09:11;10.10;;;3.97;;
71038;SDS011;58692;43.212;27.908;2024-01-30T11:14:34;12.20;;;4.22;;
71038;SDS011;58692;43.212;27.908;2024-01-30T11:17:06;14.55;;;4.35;;
71038;SDS011;58692;43.212;27.908;2024-01-30T11:19:34;11.23;;;4.20;;
71038;SDS011;58692;43.212;27.908;2024-01-30T11:22:00;12.13;;;4.10;;
71038;SDS011;58692;43.212;27.908;2024-01-30T11:24:27;11.00;;;4.80;;
71038;SDS011;58692;43.212;27.908;2024-01-30T11:26:56;12.00;;;4.57;;
71038;SDS011;58692;43.212;27.908;2024-01-30T11:29:30;10.90;;;4.20;;
71038;SDS011;58692;43.212;27.908;2024-01-30T11:31:56;10.90;;;3.97;;
71038;SDS011;58692;43.212;27.908;2024-01-30T11:34:24;11.18;;;4.38;;
71038;SDS011;58692;43.212;27.908;2024-01-30T11:36:52;12.20;;;3.95;;
71038;SDS011;58692;43.212;27.908;2024-01-30T11:39:24;12.15;;;4.35;;
71038;SDS011;58692;43.212;27.908;2024-01-30T11:41:52;10.93;;;4.30;;
71038;SDS011;58692;43.212;27.908;2024-01-30T11:44:19;13.60;;;4.78;;
71038;SDS011;58692;43.212;27.908;2024-01-30T11:46:48;10.60;;;4.38;;
71038;SDS011;58692;43.212;27.908;2024-01-30T11:49:14;14.43;;;4.30;;
71038;SDS011;58692;43.212;27.908;2024-01-30T11:51:40;11.87;;;4.87;;
71038;SDS011;58692;43.212;27.908;2024-01-30T11:54:07;10.52;;;3.90;;
71038;SDS011;58692;43.212;27.908;2024-01-30T11:56:33;11.52;;;4.88;;
71038;SDS011;58692;43.212;27.908;2024-01-30T11:58:58;10.17;;;4.33;;
71038;SDS011;58692;43.212;27.908;2024-01-30T12:01:25;11.65;;;4.75;;
71038;SDS011;58692;43.212;27.908;2024-01-30T12:03:52;12.20;;;4.22;;
71038;SDS011;58692;43.212;27.908;2024-01-30T12:06:18;10.73;;;3.83;;
71038;SDS011;58692;43.212;27.908;2024-01-30T12:08:55;10.60;;;3.37;;
71038;SDS011;58692;43.212;27.908;2024-01-30T12:11:22;9.80;;;3.30;;
71038;SDS011;58692;43.212;27.908;2024-01-30T12:13:48;12.57;;;3.93;;
71038;SDS011;58692;43.212;27.908;2024-01-30T12:16:15;11.23;;;3.63;;
71038;SDS011;58692;43.212;27.908;2024-01-30T12:18:41;14.83;;;3.93;;
71038;SDS011;58692;43.212;27.908;2024-01-30T12:21:07;11.48;;;4.60;;
71038;SDS011;58692;43.212;27.908;2024-01-30T12:23:34;10.77;;;4.20;;
71038;SDS011;58692;43.212;27.908;2024-01-30T12:26:00;11.77;;;4.77;;
71038;SDS011;58692;43.212;27.908;2024-01-30T12:28:28;12.20;;;4.88;;
71038;SDS011;58692;43.212;27.908;2024-01-30T12:30:56;15.52;;;4.78;;
71038;SDS011;58692;43.212;27.908;2024-01-30T12:33:26;10.65;;;4.13;;
71038;SDS011;58692;43.212;27.908;2024-01-30T12:35:52;13.40;;;4.75;;
71038;SDS011;58692;43.212;27.908;2024-01-30T12:38:17;11.43;;;3.77;;
71038;SDS011;58692;43.212;27.908;2024-01-30T12:40:43;9.80;;;3.58;;
71038;SDS011;58692;43.212;27.908;2024-01-30T12:43:10;10.65;;;4.88;;
71038;SDS011;58692;43.212;27.908;2024-01-30T12:45:36;12.63;;;4.60;;
71038;SDS011;58692;43.212;27.908;2024-01-30T12:48:02;11.32;;;4.13;;
71038;SDS011;58692;43.212;27.908;2024-01-30T12:50:27;12.70;;;4.60;;
71038;SDS011;58692;43.212;27.908;2024-01-30T12:52:53;9.63;;;4.00;;
71038;SDS011;58692;43.212;27.908;2024-01-30T12:55:19;12.73;;;4.03;;
71038;SDS011;58692;43.212;27.908;2024-01-30T12:57:44;8.93;;;3.70;;
71038;SDS011;58692;43.212;27.908;2024-01-30T13:00:11;10.50;;;4.15;;
71038;SDS011;58692;43.212;27.908;2024-01-30T13:02:37;11.35;;;3.95;;
71038;SDS011;58692;43.212;27.908;2024-01-30T13:05:03;8.57;;;3.00;;
71038;SDS011;58692;43.212;27.908;2024-01-30T13:07:29;8.65;;;3.22;;
71038;SDS011;58692;43.212;27.908;2024-01-30T13:09:56;8.30;;;3.00;;
71038;SDS011;58692;43.212;27.908;2024-01-30T13:12:27;8.35;;;2.90;;
71038;SDS011;58692;43.212;27.908;2024-01-30T13:14:53;9.20;;;3.07;;
71038;SDS011;58692;43.212;27.908;2024-01-30T13:17:19;9.40;;;3.38;;
71038;SDS011;58692;43.212;27.908;2024-01-30T13:19:45;7.90;;;3.10;;
71038;SDS011;58692;43.212;27.908;2024-01-30T13:22:11;7.53;;;3.03;;
71038;SDS011;58692;43.212;27.908;2024-01-30T13:24:36;8.50;;;2.93;;
71038;SDS011;58692;43.212;27.908;2024-01-30T13:27:02;6.95;;;2.85;;
71038;SDS011;58692;43.212;27.908;2024-01-30T13:29:30;9.40;;;3.17;;
71038;SDS011;58692;43.212;27.908;2024-01-30T13:31:56;7.38;;;2.90;;
71038;SDS011;58692;43.212;27.908;2024-01-30T13:34:22;8.23;;;2.87;;
71038;SDS011;58692;43.212;27.908;2024-01-30T13:36:47;6.77;;;2.70;;
71038;SDS011;58692;43.212;27.908;2024-01-30T13:39:14;6.43;;;2.90;;
71038;SDS011;58692;43.212;27.908;2024-01-30T13:41:41;9.77;;;2.63;;
71038;SDS011;58692;43.212;27.908;2024-01-30T13:44:07;8.73;;;3.07;;
71038;SDS011;58692;43.212;27.908;2024-01-30T13:46:34;7.13;;;3.13;;
71038;SDS011;58692;43.212;27.908;2024-01-30T13:49:01;10.75;;;3.33;;
71038;SDS011;58692;43.212;27.908;2024-01-30T13:51:27;8.18;;;2.50;;
71038;SDS011;58692;43.212;27.908;2024-01-30T13:53:53;9.17;;;2.80;;
71038;SDS011;58692;43.212;27.908;2024-01-30T13:56:19;7.78;;;2.97;;
71038;SDS011;58692;43.212;27.908;2024-01-30T13:58:47;6.15;;;2.30;;
71038;SDS011;58692;43.212;27.908;2024-01-30T14:01:15;6.38;;;2.55;;
71038;SDS011;58692;43.212;27.908;2024-01-30T14:03:40;6.07;;;2.37;;
71038;SDS011;58692;43.212;27.908;2024-01-30T14:06:06;8.27;;;2.50;;
71038;SDS011;58692;43.212;27.908;2024-01-30T14:08:32;8.10;;;2.83;;
71038;SDS011;58692;43.212;27.908;2024-01-30T14:10:58;8.27;;;3.03;;
71038;SDS011;58692;43.212;27.908;2024-01-30T14:13:24;8.82;;;3.05;;
71038;SDS011;58692;43.212;27.908;2024-01-30T14:15:50;7.50;;;2.43;;
71038;SDS011;58692;43.212;27.908;2024-01-30T14:18:17;7.88;;;2.50;;
71038;SDS011;58692;43.212;27.908;2024-01-30T14:20:43;8.10;;;2.67;;
71038;SDS011;58692;43.212;27.908;2024-01-30T14:23:09;9.68;;;3.10;;
71038;SDS011;58692;43.212;27.908;2024-01-30T14:25:34;10.27;;;3.20;;
71038;SDS011;58692;43.212;27.908;2024-01-30T14:28:00;8.85;;;3.00;;
71038;SDS011;58692;43.212;27.908;2024-01-30T14:30:26;9.27;;;3.07;;
71038;SDS011;58692;43.212;27.908;2024-01-30T14:32:51;9.17;;;3.33;;
71038;SDS011;58692;43.212;27.908;2024-01-30T14:35:17;8.15;;;3.20;;
71038;SDS011;58692;43.212;27.908;2024-01-30T14:37:44;13.88;;;3.13;;
71038;SDS011;58692;43.212;27.908;2024-01-30T14:40:10;7.30;;;2.77;;
71038;SDS011;58692;43.212;27.908;2024-01-30T14:42:36;10.05;;;3.65;;
71038;SDS011;58692;43.212;27.908;2024-01-30T14:45:02;10.55;;;3.00;;
71038;SDS011;58692;43.212;27.908;2024-01-30T14:47:29;7.97;;;2.90;;
71038;SDS011;58692;43.212;27.908;2024-01-30T14:49:56;9.93;;;3.53;;
71038;SDS011;58692;43.212;27.908;2024-01-30T14:52:22;11.65;;;4.03;;
71038;SDS011;58692;43.212;27.908;2024-01-30T14:57:38;9.25;;;3.97;;